Time;durP1;ratioP1;P1;durP2;ratioP2;P2;SDS_P1;SDS_P2;PMS_P1;PMS_P2;Temp;Humidity;BMP_temperature;BMP_pressure;BME280_temperature;BME280_humidity;BME280_pressure;Samples;Min_cycle;Max_cycle;Signal;HPM_P1;HPM_P2
2022/07/12 00:00:44;;;;;;;2.25;0.85;;;;;;;16.29;100.00;99381.06;5016810;28;20073;-59
2022/07/12 00:03:10;;;;;;;1.42;0.90;;;;;;;16.25;100.00;99373.56;5001007;28;20520;-59
2022/07/12 00:05:35;;;;;;;1.20;0.85;;;;;;;16.26;100.00;99381.50;5025806;28;20032;-59
2022/07/12 00:08:01;;;;;;;1.75;1.10;;;;;;;16.33;100.00;99386.91;5009865;28;20030;-59
2022/07/12 00:10:26;;;;;;;2.08;1.10;;;;;;;16.26;100.00;99380.69;5003524;28;20080;-59
2022/07/12 00:12:52;;;;;;;1.25;0.98;;;;;;;16.22;100.00;99388.50;4995391;28;20390;-59
2022/07/12 00:15:18;;;;;;;1.17;0.70;;;;;;;16.29;100.00;99391.97;5003322;28;20034;-59
2022/07/12 00:17:43;;;;;;;1.08;0.90;;;;;;;16.27;100.00;99388.66;5002393;28;20029;-59
2022/07/12 00:20:09;;;;;;;2.17;0.80;;;;;;;16.20;100.00;99387.88;5009160;28;20404;-59
2022/07/12 00:22:34;;;;;;;0.88;0.80;;;;;;;16.18;100.00;99390.00;5009352;28;20038;-59
2022/07/12 00:25:00;;;;;;;2.72;0.80;;;;;;;16.16;100.00;99392.94;5006699;28;20046;-59
2022/07/12 00:27:25;;;;;;;4.63;1.33;;;;;;;16.15;100.00;99387.72;5007871;28;20120;-59
2022/07/12 00:29:51;;;;;;;3.30;1.27;;;;;;;16.24;100.00;99386.34;4999346;28;20390;-59
2022/07/12 00:32:16;;;;;;;1.90;1.20;;;;;;;16.15;100.00;99385.81;4999089;28;20096;-59
2022/07/12 00:34:42;;;;;;;2.13;1.25;;;;;;;16.07;100.00;99385.28;5002378;28;20378;-59
2022/07/12 00:37:07;;;;;;;0.77;0.77;;;;;;;15.90;100.00;99391.31;5010389;28;20042;-59
2022/07/12 00:39:32;;;;;;;1.58;1.00;;;;;;;15.78;100.00;99387.66;5009081;28;20017;-59
2022/07/12 00:41:58;;;;;;;2.65;1.10;;;;;;;15.65;100.00;99385.81;5010846;28;20076;-59
2022/07/12 00:44:24;;;;;;;0.90;0.80;;;;;;;15.56;100.00;99379.81;5000625;28;20029;-59
2022/07/12 00:46:49;;;;;;;0.80;0.70;;;;;;;15.55;100.00;99378.13;5004803;28;20481;-59
2022/07/12 00:49:15;;;;;;;1.75;0.70;;;;;;;15.49;100.00;99379.03;5020971;28;20069;-59
2022/07/12 00:51:44;;;;;;;1.20;0.90;;;;;;;15.48;100.00;99377.38;5015004;28;20083;-59
2022/07/12 00:54:10;;;;;;;1.63;1.00;;;;;;;15.47;100.00;99383.84;5010683;28;20034;-59
2022/07/12 00:56:36;;;;;;;2.53;0.80;;;;;;;15.52;100.00;99381.31;5013021;28;20383;-59
2022/07/12 00:59:01;;;;;;;2.40;0.95;;;;;;;15.57;100.00;99381.47;5006402;28;20026;-59
2022/07/12 01:01:27;;;;;;;1.73;0.77;;;;;;;15.62;100.00;99382.72;5001729;28;20255;-59
2022/07/12 01:03:52;;;;;;;0.80;0.75;;;;;;;15.71;100.00;99384.13;5011891;28;20020;-59
2022/07/12 01:06:20;;;;;;;0.80;0.60;;;;;;;15.78;100.00;99384.91;5012530;28;20393;-59
2022/07/12 01:08:45;;;;;;;2.22;0.70;;;;;;;15.86;100.00;99392.00;5010168;28;20421;-59
2022/07/12 01:11:11;;;;;;;1.30;0.82;;;;;;;15.90;100.00;99391.31;5007363;28;20033;-59
2022/07/12 01:13:37;;;;;;;0.77;0.75;;;;;;;15.96;100.00;99392.31;5006319;28;20022;-59
2022/07/12 01:16:05;;;;;;;0.80;0.80;;;;;;;15.96;100.00;99381.41;5009527;28;20042;-59
2022/07/12 01:18:32;;;;;;;1.20;0.65;;;;;;;15.87;100.00;99394.47;5002076;28;20022;-59
2022/07/12 01:20:57;;;;;;;0.70;0.68;;;;;;;15.79;100.00;99383.84;5011226;28;20116;-59
2022/07/12 01:23:24;;;;;;;1.25;0.77;;;;;;;15.70;100.00;99383.31;5008718;28;20117;-59
2022/07/12 01:25:49;;;;;;;1.55;0.70;;;;;;;15.65;100.00;99393.19;5004992;28;20026;-59
2022/07/12 01:28:15;;;;;;;1.60;0.80;;;;;;;15.61;100.00;99392.78;5001017;28;20030;-59
2022/07/12 01:30:41;;;;;;;1.42;0.80;;;;;;;15.60;100.00;99388.38;5010365;28;20038;-59
2022/07/12 01:33:06;;;;;;;2.08;0.73;;;;;;;15.59;100.00;99392.19;5019977;28;20472;-59
2022/07/12 01:35:32;;;;;;;1.52;0.70;;;;;;;15.53;100.00;99391.16;5017923;28;20018;-59
2022/07/12 01:37:58;;;;;;;0.85;0.73;;;;;;;15.45;100.00;99391.41;5004946;28;20044;-59
2022/07/12 01:40:24;;;;;;;1.20;0.70;;;;;;;15.40;100.00;99393.13;5017596;28;20029;-59
2022/07/12 01:42:51;;;;;;;1.08;0.98;;;;;;;15.34;100.00;99394.84;5017186;28;20034;-59
2022/07/12 01:45:16;;;;;;;1.08;0.77;;;;;;;15.35;100.00;99404.69;5001722;28;20049;-59
2022/07/12 01:47:42;;;;;;;2.65;1.55;;;;;;;15.29;100.00;99400.13;5019158;28;20474;-59
2022/07/12 01:50:09;;;;;;;1.52;1.20;;;;;;;15.18;100.00;99398.13;5010365;28;20037;-59
2022/07/12 01:52:44;;;;;;;2.88;1.20;;;;;;;15.13;100.00;99394.13;5009879;28;20029;-59
2022/07/12 01:55:10;;;;;;;1.73;1.52;;;;;;;15.11;100.00;99390.78;5011010;28;20056;-59
2022/07/12 01:57:38;;;;;;;3.35;2.50;;;;;;;15.07;100.00;99389.56;5009324;28;20057;-59
2022/07/12 02:00:05;;;;;;;2.72;2.13;;;;;;;15.00;100.00;99387.94;4999604;28;20048;-59
2022/07/12 02:02:31;;;;;;;2.58;1.75;;;;;;;14.99;100.00;99383.56;5016516;28;20047;-59
2022/07/12 02:04:59;;;;;;;2.60;1.30;;;;;;;14.96;100.00;99384.81;5011750;28;20049;-59
2022/07/12 02:07:25;;;;;;;1.42;1.20;;;;;;;14.94;100.00;99383.38;5004754;28;20441;-59
2022/07/12 02:09:51;;;;;;;2.50;1.58;;;;;;;14.82;100.00;99385.94;5010516;28;20030;-59
2022/07/12 02:12:16;;;;;;;2.92;1.40;;;;;;;14.79;100.00;99392.63;5010512;28;20533;-59
2022/07/12 02:14:42;;;;;;;2.33;1.20;;;;;;;14.83;100.00;99385.72;5011112;28;20107;-59
2022/07/12 02:17:07;;;;;;;4.97;1.40;;;;;;;14.81;100.00;99381.53;5010965;28;20040;-59
2022/07/12 02:19:32;;;;;;;2.10;1.50;;;;;;;14.67;100.00;99395.22;5003449;28;20029;-59
2022/07/12 02:21:58;;;;;;;1.25;1.00;;;;;;;14.52;100.00;99389.16;5000579;28;20467;-59
2022/07/12 02:24:23;;;;;;;1.52;1.40;;;;;;;14.44;100.00;99390.22;5010519;28;20476;-59
2022/07/12 02:26:49;;;;;;;2.25;1.30;;;;;;;14.39;100.00;99391.94;5000593;28;20533;-59
2022/07/12 02:29:15;;;;;;;1.25;0.80;;;;;;;14.24;100.00;99394.88;5011206;28;20033;-59
2022/07/12 02:31:40;;;;;;;1.63;1.15;;;;;;;14.23;100.00;99388.63;5008794;28;20386;-59
2022/07/12 02:34:06;;;;;;;1.40;1.10;;;;;;;14.22;100.00;99391.53;5001261;28;20029;-60
2022/07/12 02:36:31;;;;;;;1.30;1.20;;;;;;;14.24;100.00;99395.72;5010816;28;20126;-60
2022/07/12 02:38:57;;;;;;;1.73;1.27;;;;;;;14.12;100.00;99386.56;5000070;28;20036;-60
2022/07/12 02:41:22;;;;;;;2.53;1.45;;;;;;;14.08;100.00;99382.56;5011575;28;20648;-60
2022/07/12 02:43:48;;;;;;;1.70;1.40;;;;;;;13.99;100.00;99381.09;5009607;28;20038;-60
2022/07/12 02:46:13;;;;;;;4.30;1.50;;;;;;;13.89;100.00;99392.44;5006563;28;20033;-60
2022/07/12 02:48:40;;;;;;;2.85;1.50;;;;;;;13.87;100.00;99391.78;5001324;28;20031;-60
2022/07/12 02:51:06;;;;;;;1.83;1.20;;;;;;;13.82;100.00;99394.31;5006680;28;20382;-59
2022/07/12 02:53:33;;;;;;;2.50;1.20;;;;;;;13.75;100.00;99390.75;5006315;28;20488;-59
2022/07/12 02:55:59;;;;;;;3.20;1.20;;;;;;;13.62;100.00;99397.00;5011693;28;20038;-60
2022/07/12 02:58:25;;;;;;;3.15;1.60;;;;;;;13.49;100.00;99397.88;5028648;28;20029;-60
2022/07/12 03:00:50;;;;;;;3.20;1.48;;;;;;;13.51;100.00;99394.94;5007764;28;20054;-60
2022/07/12 03:03:15;;;;;;;2.53;1.40;;;;;;;13.69;100.00;99395.16;5005464;28;20026;-60
2022/07/12 03:05:42;;;;;;;3.25;1.40;;;;;;;13.62;100.00;99391.59;5005675;28;20046;-60
2022/07/12 03:08:09;;;;;;;1.15;1.05;;;;;;;13.55;100.00;99388.03;5008052;28;20041;-60
2022/07/12 03:10:35;;;;;;;1.77;1.08;;;;;;;13.62;100.00;99396.19;5008755;28;20421;-60
2022/07/12 03:15:29;;;;;;;2.33;1.20;;;;;;;13.63;100.00;99392.44;4995098;28;20418;-62
2022/07/12 03:17:55;;;;;;;2.33;1.30;;;;;;;13.53;100.00;99395.56;4991461;28;20058;-62
2022/07/12 03:20:21;;;;;;;1.75;1.27;;;;;;;13.37;100.00;99404.97;4988341;28;20496;-62
2022/07/12 03:22:48;;;;;;;2.17;1.50;;;;;;;13.21;100.00;99414.31;4985656;28;20032;-62
2022/07/12 03:25:14;;;;;;;2.95;1.33;;;;;;;13.07;100.00;99412.56;4974412;28;20027;-64
2022/07/12 03:27:40;;;;;;;3.25;1.88;;;;;;;12.96;100.00;99407.75;4964104;28;20046;-62
2022/07/12 03:30:07;;;;;;;2.47;1.45;;;;;;;12.88;100.00;99414.19;4969670;28;20394;-62
2022/07/12 03:32:32;;;;;;;6.43;1.88;;;;;;;12.84;100.00;99418.38;4967753;28;20077;-63
2022/07/12 03:34:58;;;;;;;4.05;1.60;;;;;;;12.85;100.00;99422.75;4975204;28;20046;-63
2022/07/12 03:37:23;;;;;;;2.97;1.65;;;;;;;12.81;100.00;99416.91;4972310;28;20035;-63
2022/07/12 03:39:49;;;;;;;2.65;2.03;;;;;;;12.79;100.00;99418.13;4970403;28;20446;-62
2022/07/12 03:42:14;;;;;;;4.10;2.00;;;;;;;12.79;100.00;99421.69;4973705;28;20034;-62
2022/07/12 03:44:39;;;;;;;3.05;1.77;;;;;;;12.79;100.00;99424.41;4978057;28;20060;-63
2022/07/12 03:47:05;;;;;;;2.75;2.20;;;;;;;12.83;100.00;99425.66;4973350;28;20037;-63
2022/07/12 03:49:31;;;;;;;2.58;1.67;;;;;;;12.87;100.00;99432.38;4973337;28;20390;-63
2022/07/12 03:51:57;;;;;;;5.78;1.95;;;;;;;12.91;100.00;99427.34;4972427;28;20030;-63
2022/07/12 03:54:23;;;;;;;2.08;1.65;;;;;;;12.89;100.00;99434.88;4976932;28;20023;-63
2022/07/12 03:59:33;;;;;;;2.03;1.63;;;;;;;12.84;100.00;99440.94;4971539;28;20178;-63
2022/07/12 04:01:58;;;;;;;5.40;1.60;;;;;;;12.82;100.00;99451.16;4967765;28;20117;-62
2022/07/12 04:04:23;;;;;;;2.70;1.55;;;;;;;12.80;100.00;99441.53;4968547;28;21042;-62
2022/07/12 04:06:49;;;;;;;2.60;1.67;;;;;;;12.83;100.00;99447.38;4974426;28;20023;-62
2022/07/12 04:09:15;;;;;;;2.10;1.67;;;;;;;12.86;100.00;99447.00;4973100;28;20039;-63
2022/07/12 04:11:40;;;;;;;1.73;1.48;;;;;;;12.94;100.00;99449.53;4972131;28;20027;-63
2022/07/12 04:14:05;;;;;;;2.47;1.60;;;;;;;13.05;100.00;99455.44;4973606;28;20363;-62
2022/07/12 04:16:31;;;;;;;1.85;1.40;;;;;;;13.14;100.00;99452.31;4971986;28;20378;-62
2022/07/12 04:18:57;;;;;;;1.92;1.17;;;;;;;13.23;100.00;99458.41;4972880;28;20471;-63
2022/07/12 04:21:23;;;;;;;3.63;1.10;;;;;;;13.34;100.00;99451.56;4962277;28;20549;-62
2022/07/12 04:23:48;;;;;;;0.82;0.70;;;;;;;13.47;100.00;99453.50;4969872;28;20023;-63
2022/07/12 04:26:14;;;;;;;1.77;0.80;;;;;;;13.52;100.00;99442.84;4974578;28;20023;-63
2022/07/12 04:28:39;;;;;;;1.27;0.88;;;;;;;13.89;100.00;99443.28;4968214;28;20026;-63
2022/07/12 04:31:06;;;;;;;1.63;1.15;;;;;;;14.03;100.00;99448.50;4969973;28;20034;-63
2022/07/12 04:33:32;;;;;;;4.05;1.35;;;;;;;14.04;100.00;99441.16;4974159;28;20102;-63
2022/07/12 04:35:58;;;;;;;2.33;1.33;;;;;;;14.14;100.00;99449.72;4974460;28;20027;-63
2022/07/12 04:38:23;;;;;;;1.48;1.02;;;;;;;14.28;100.00;99455.16;4973842;28;20149;-62
2022/07/12 04:40:49;;;;;;;2.30;1.15;;;;;;;14.39;100.00;99458.09;4972709;28;20050;-63
2022/07/12 04:43:14;;;;;;;4.25;0.93;;;;;;;14.53;100.00;99448.03;4971297;28;20030;-63
2022/07/12 04:45:43;;;;;;;1.60;1.05;;;;;;;14.66;100.00;99449.88;4971781;28;20022;-62
2022/07/12 04:48:09;;;;;;;1.00;0.90;;;;;;;14.66;100.00;99453.44;4971143;28;20027;-63
2022/07/12 04:50:35;;;;;;;1.75;1.20;;;;;;;14.70;100.00;99445.69;4965603;28;20033;-62
2022/07/12 04:53:00;;;;;;;6.50;1.55;;;;;;;14.82;100.00;99452.13;4973214;28;20049;-63
2022/07/12 04:55:25;;;;;;;2.70;1.70;;;;;;;14.89;100.00;99447.50;4964797;28;20031;-63
2022/07/12 04:57:51;;;;;;;2.55;1.67;;;;;;;14.86;100.00;99442.50;4981531;28;20077;-63
2022/07/12 05:00:16;;;;;;;4.95;1.52;;;;;;;14.86;100.00;99442.50;4962063;28;20051;-63
2022/07/12 05:02:42;;;;;;;6.47;1.60;;;;;;;15.01;100.00;99453.13;4972591;28;20034;-61
2022/07/12 05:05:07;;;;;;;3.42;1.55;;;;;;;15.22;100.00;99459.28;4964143;28;20027;-60
2022/07/12 05:07:33;;;;;;;2.28;1.35;;;;;;;15.40;100.00;99456.69;4970572;28;20045;-61
2022/07/12 05:09:58;;;;;;;1.40;1.05;;;;;;;15.46;100.00;99457.72;4964059;28;20373;-60
2022/07/12 05:12:24;;;;;;;2.50;1.23;;;;;;;15.52;100.00;99456.84;4967440;28;20545;-60
2022/07/12 05:14:49;;;;;;;3.22;1.10;;;;;;;15.65;100.00;99464.94;4971430;28;20057;-60
2022/07/12 05:17:15;;;;;;;1.58;1.20;;;;;;;15.76;100.00;99464.25;4970578;28;20482;-60
2022/07/12 05:19:40;;;;;;;2.50;1.25;;;;;;;15.86;100.00;99466.50;4971216;28;20530;-60
2022/07/12 05:22:06;;;;;;;1.38;1.20;;;;;;;16.02;100.00;99464.28;4964575;28;20090;-60
2022/07/12 05:24:31;;;;;;;2.20;1.27;;;;;;;16.15;100.00;99467.72;4968269;28;20030;-60
2022/07/12 05:26:56;;;;;;;4.60;1.60;;;;;;;16.23;100.00;99474.78;4971234;28;20026;-60
2022/07/12 05:29:22;;;;;;;2.20;1.05;;;;;;;16.31;100.00;99466.31;4968946;28;20069;-60
2022/07/12 05:31:48;;;;;;;2.00;1.30;;;;;;;16.39;100.00;99468.75;4963506;28;20031;-60
2022/07/12 05:34:13;;;;;;;1.80;1.25;;;;;;;16.58;100.00;99466.03;4988646;28;20074;-60
2022/07/12 05:36:39;;;;;;;1.98;1.20;;;;;;;16.84;100.00;99471.25;4970557;28;20118;-60
2022/07/12 05:39:05;;;;;;;1.73;0.82;;;;;;;17.07;100.00;99472.47;4969468;28;20034;-60
2022/07/12 05:41:30;;;;;;;1.05;0.90;;;;;;;17.33;100.00;99478.66;4973332;28;20082;-60
2022/07/12 05:43:55;;;;;;;2.38;1.17;;;;;;;17.38;100.00;99476.91;4972674;28;20077;-60
2022/07/12 05:46:21;;;;;;;2.80;0.98;;;;;;;17.54;100.00;99478.16;4967560;28;20027;-60
2022/07/12 05:48:46;;;;;;;2.75;1.20;;;;;;;17.80;96.85;99476.13;4970837;28;20114;-61
2022/07/12 05:53:55;;;;;;;3.50;1.10;;;;;;;17.86;93.76;99486.97;4973754;28;20099;-60
2022/07/12 05:56:21;;;;;;;2.45;0.88;;;;;;;18.25;89.25;99475.59;4970114;28;20509;-60
2022/07/12 05:58:46;;;;;;;5.00;1.33;;;;;;;18.31;86.76;99482.88;4965988;28;20023;-60
2022/07/12 06:01:12;;;;;;;2.78;1.40;;;;;;;18.33;85.23;99480.72;4969997;28;21019;-60
2022/07/12 06:03:37;;;;;;;3.60;1.48;;;;;;;18.58;83.25;99486.81;4972232;28;20027;-60
2022/07/12 06:06:03;;;;;;;3.15;1.10;;;;;;;18.73;80.60;99490.97;4964468;28;20475;-60
2022/07/12 06:08:28;;;;;;;0.95;0.82;;;;;;;18.77;81.68;99498.50;4965937;28;20038;-60
2022/07/12 06:10:54;;;;;;;0.90;0.70;;;;;;;19.20;77.16;99494.50;4972977;28;20022;-59
2022/07/12 06:13:19;;;;;;;0.88;0.50;;;;;;;19.61;75.93;99488.97;4964948;28;20058;-60
2022/07/12 06:15:44;;;;;;;1.45;0.55;;;;;;;19.80;72.55;99489.63;4970730;28;20018;-60
2022/07/12 06:18:10;;;;;;;0.70;0.63;;;;;;;19.93;71.03;99492.06;4971716;28;20490;-60
2022/07/12 06:20:35;;;;;;;2.00;0.70;;;;;;;20.04;73.24;99499.41;4973007;28;20438;-60
2022/07/12 06:23:01;;;;;;;0.68;0.50;;;;;;;20.33;71.63;99500.16;4969188;28;20022;-59
2022/07/12 06:25:26;;;;;;;3.03;0.77;;;;;;;20.56;69.21;99496.41;4969566;28;20451;-59
2022/07/12 06:27:51;;;;;;;3.42;0.70;;;;;;;20.55;67.80;99507.69;4970071;28;20050;-60
2022/07/12 06:30:18;;;;;;;1.85;0.52;;;;;;;20.62;69.01;99500.09;4969790;28;20026;-60
2022/07/12 06:32:45;;;;;;;1.20;0.40;;;;;;;20.85;68.89;99495.44;4969100;28;20046;-60
2022/07/12 06:35:10;;;;;;;1.08;0.40;;;;;;;21.06;67.64;99499.31;4971303;28;20026;-60
2022/07/12 06:37:36;;;;;;;0.95;0.30;;;;;;;21.26;66.23;99499.56;4972841;28;20118;-60
2022/07/12 06:40:01;;;;;;;0.40;0.30;;;;;;;21.47;64.85;99500.69;4968108;28;20475;-60
2022/07/12 06:42:27;;;;;;;0.20;0.20;;;;;;;21.80;63.47;99493.34;4971349;28;20023;-60
2022/07/12 06:44:52;;;;;;;0.40;0.40;;;;;;;21.76;63.06;99498.50;4972684;28;20455;-60
2022/07/12 06:47:17;;;;;;;0.35;0.30;;;;;;;22.56;61.55;99506.13;4975879;28;20035;-60
2022/07/12 06:49:43;;;;;;;0.60;0.40;;;;;;;22.95;59.06;99509.41;4973626;28;20478;-60
2022/07/12 06:52:08;;;;;;;0.55;0.40;;;;;;;22.87;57.71;99508.00;4975381;28;20070;-60
2022/07/12 06:54:34;;;;;;;0.40;0.30;;;;;;;22.82;57.42;99505.22;4975462;28;20022;-60
2022/07/12 06:56:59;;;;;;;0.30;0.30;;;;;;;24.10;54.30;99496.56;4972735;28;20537;-60
2022/07/12 06:59:30;;;;;;;0.30;0.30;;;;;;;24.27;51.63;99497.94;4974854;28;21836;-60
2022/07/12 07:01:57;;;;;;;0.20;0.20;;;;;;;25.95;48.45;99504.09;4970355;28;20041;-60
2022/07/12 07:04:23;;;;;;;0.40;0.20;;;;;;;27.22;46.42;99509.66;4966348;28;20102;-60
2022/07/12 07:06:48;;;;;;;0.60;0.30;;;;;;;28.24;42.83;99509.34;4967146;28;20030;-60
2022/07/12 07:09:14;;;;;;;0.52;0.10;;;;;;;29.37;39.39;99511.75;4965990;28;20391;-60
2022/07/12 07:11:40;;;;;;;0.35;0.20;;;;;;;30.90;37.18;99509.28;4964159;28;20027;-60
2022/07/12 07:14:06;;;;;;;0.63;0.10;;;;;;;31.96;35.60;99514.88;4961686;28;20447;-60
2022/07/12 07:16:32;;;;;;;0.35;0.20;;;;;;;31.65;36.31;99516.63;4984610;28;20118;-60
2022/07/12 07:18:57;;;;;;;0.20;0.20;;;;;;;31.41;36.42;99519.03;4961855;28;20114;-60
2022/07/12 07:21:23;;;;;;;1.95;0.20;;;;;;;32.40;35.69;99521.28;4962704;28;20034;-60
2022/07/12 07:23:48;;;;;;;1.33;0.30;;;;;;;33.36;33.85;99522.69;4967832;28;20027;-60
2022/07/12 07:26:13;;;;;;;0.35;0.15;;;;;;;34.26;33.06;99526.22;4977087;28;20423;-60
2022/07/12 07:31:23;;;;;;;0.68;0.10;;;;;;;34.71;30.56;99530.28;4961576;28;20135;-61
2022/07/12 07:33:48;;;;;;;0.28;0.10;;;;;;;35.91;30.11;99527.06;4964155;28;20522;-61
2022/07/12 07:36:14;;;;;;;0.85;0.15;;;;;;;35.90;29.22;99531.06;4960885;28;20122;-61
2022/07/12 07:38:39;;;;;;;0.10;0.10;;;;;;;33.02;31.76;99518.06;4964455;28;20030;-68
2022/07/12 07:41:05;;;;;;;0.30;0.10;;;;;;;35.74;29.47;99516.91;4974195;28;20045;-69
2022/07/12 07:43:30;;;;;;;0.17;0.15;;;;;;;36.57;28.27;99513.72;4974071;28;20078;-68
2022/07/12 07:45:56;;;;;;;0.93;0.20;;;;;;;34.32;30.39;99513.59;4968306;28;20501;-69
2022/07/12 07:48:22;;;;;;;0.30;0.20;;;;;;;34.54;30.26;99520.84;4971485;28;20026;-70
2022/07/12 07:50:47;;;;;;;0.30;0.10;;;;;;;36.47;28.32;99522.66;4974402;28;20027;-70
2022/07/12 07:53:12;;;;;;;0.60;0.20;;;;;;;36.20;27.18;99511.06;4972652;28;20034;-69
2022/07/12 07:55:38;;;;;;;0.25;0.10;;;;;;;37.38;26.91;99513.44;4972592;28;20038;-70
2022/07/12 07:58:03;;;;;;;0.10;0.10;;;;;;;37.41;26.37;99512.69;4973796;28;20437;-69
2022/07/12 08:00:29;;;;;;;0.03;0.03;;;;;;;37.70;25.78;99515.03;4975051;28;21215;-70
2022/07/12 08:02:55;;;;;;;0.10;0.10;;;;;;;35.76;27.36;99513.72;4965169;28;20515;-70
2022/07/12 08:05:22;;;;;;;0.10;0.00;;;;;;;35.44;28.11;99507.06;4973967;28;20027;-70
2022/07/12 08:07:47;;;;;;;0.10;0.10;;;;;;;35.77;27.54;99509.75;4973469;28;20030;-69
2022/07/12 08:10:13;;;;;;;0.00;0.00;;;;;;;32.18;32.07;99511.09;4969866;28;20038;-70
2022/07/12 08:12:38;;;;;;;0.30;0.10;;;;;;;29.88;35.20;99516.22;4974400;28;20019;-70
2022/07/12 08:15:04;;;;;;;0.28;0.10;;;;;;;28.54;37.59;99508.84;4974549;28;20076;-68
2022/07/12 08:17:29;;;;;;;0.57;0.20;;;;;;;27.51;39.77;99506.78;4974625;28;20483;-70
2022/07/12 08:19:55;;;;;;;0.10;0.10;;;;;;;26.17;42.29;99509.22;4971532;28;20035;-69
2022/07/12 08:22:21;;;;;;;0.43;0.10;;;;;;;27.91;39.90;99504.56;4973410;28;20122;-69
2022/07/12 08:24:46;;;;;;;0.47;0.20;;;;;;;31.98;33.56;99513.38;4969972;28;20089;-69
2022/07/12 08:27:14;;;;;;;0.82;0.10;;;;;;;35.92;28.64;99497.75;4973529;28;20026;-69
2022/07/12 08:29:39;;;;;;;0.10;0.10;;;;;;;37.15;26.45;99490.69;4973787;28;20026;-69
2022/07/12 08:32:07;;;;;;;0.10;0.10;;;;;;;38.92;24.65;99491.31;4973187;28;20023;-69
2022/07/12 08:34:32;;;;;;;2.40;0.10;;;;;;;39.99;23.18;99498.66;4973572;28;20045;-69
2022/07/12 08:36:58;;;;;;;0.10;0.10;;;;;;;40.21;23.29;99504.59;4972278;28;20471;-69
2022/07/12 08:39:23;;;;;;;0.00;0.00;;;;;;;38.51;23.35;99503.06;4969720;28;20068;-69
2022/07/12 08:41:49;;;;;;;0.25;0.10;;;;;;;38.87;22.65;99505.75;4970289;28;20121;-69
2022/07/12 08:44:14;;;;;;;0.00;0.00;;;;;;;39.55;21.62;99515.41;4974010;28;20026;-69
2022/07/12 08:46:40;;;;;;;0.00;0.00;;;;;;;39.06;21.71;99505.69;4968644;28;20089;-69
2022/07/12 08:49:09;;;;;;;0.10;0.10;;;;;;;36.94;24.46;99505.84;4965684;28;20030;-69
2022/07/12 08:51:34;;;;;;;0.00;0.00;;;;;;;35.78;25.70;99522.63;4970941;28;20385;-70
2022/07/12 08:54:10;;;;;;;1.38;0.10;;;;;;;35.63;27.00;99517.72;4977486;28;20033;-69
2022/07/12 08:56:44;;;;;;;0.03;0.00;;;;;;;33.44;29.77;99520.97;4968685;28;20034;-69
2022/07/12 08:59:14;;;;;;;0.10;0.10;;;;;;;32.09;31.32;99531.53;4971930;28;20471;-69
2022/07/12 09:01:42;;;;;;;0.30;0.17;;;;;;;31.15;33.18;99525.34;4971329;28;20066;-69
2022/07/12 09:04:16;;;;;;;0.20;0.10;;;;;;;30.79;33.09;99525.47;4969023;28;20027;-69
2022/07/12 09:06:41;;;;;;;0.10;0.10;;;;;;;32.80;30.93;99526.66;4970528;28;20037;-69
2022/07/12 09:09:08;;;;;;;0.15;0.05;;;;;;;31.72;32.13;99532.09;4970134;28;20390;-69
2022/07/12 09:11:36;;;;;;;0.93;0.10;;;;;;;30.88;33.04;99525.53;4972992;28;20035;-69
2022/07/12 09:14:02;;;;;;;0.60;0.15;;;;;;;29.55;34.55;99518.31;5012558;23;20042;-70
2022/07/12 09:16:28;;;;;;;0.10;0.10;;;;;;;30.74;33.24;99526.41;5002474;28;20034;-70
2022/07/12 09:19:13;;;;;;;0.40;0.13;;;;;;;32.59;30.96;99526.53;4984307;28;20160;-70
2022/07/12 09:21:49;;;;;;;0.45;0.20;;;;;;;34.39;29.18;99525.09;4980291;28;20018;-72
2022/07/12 09:24:15;;;;;;;1.05;0.10;;;;;;;36.04;26.51;99527.03;4987026;28;20069;-73
2022/07/12 09:26:40;;;;;;;0.28;0.10;;;;;;;37.31;25.87;99518.88;4981071;28;20023;-72
2022/07/12 09:29:07;;;;;;;0.10;0.10;;;;;;;38.16;24.75;99514.44;4980643;28;20476;-72
2022/07/12 09:36:06;;;;;;;0.45;0.15;;;;;;;38.29;24.79;99517.94;4986093;28;20067;-72
2022/07/12 09:37:13;;;;;;;1.23;0.10;;;;;;;37.87;23.77;99524.28;4994912;28;20045;-72
2022/07/12 09:39:40;;;;;;;0.20;0.10;;;;;;;36.58;24.97;99518.19;4989407;28;20376;-72
2022/07/12 09:42:09;;;;;;;0.55;0.10;;;;;;;37.70;24.86;99517.88;4979045;28;20037;-72
2022/07/12 09:44:35;;;;;;;1.50;0.08;;;;;;;37.95;24.32;99517.59;4991959;28;20088;-72
2022/07/12 09:47:01;;;;;;;0.10;0.10;;;;;;;38.10;23.37;99516.75;4981947;28;20034;-72
2022/07/12 09:49:27;;;;;;;0.00;0.00;;;;;;;37.82;24.78;99514.09;4975654;28;20054;-72
2022/07/12 09:51:57;;;;;;;0.10;0.10;;;;;;;38.13;24.28;99521.66;4973436;28;20109;-72
2022/07/12 09:54:26;;;;;;;0.68;0.20;;;;;;;38.71;23.30;99509.50;4980389;28;20388;-72
2022/07/12 09:56:55;;;;;;;0.20;0.10;;;;;;;37.78;24.19;99515.19;4973319;28;20030;-72
2022/07/12 09:59:23;;;;;;;0.20;0.10;;;;;;;37.90;24.74;99524.34;4977294;28;20022;-72
2022/07/12 10:01:50;;;;;;;0.20;0.10;;;;;;;37.85;24.01;99512.53;4981867;28;20029;-72
2022/07/12 10:04:21;;;;;;;0.10;0.10;;;;;;;38.24;23.90;99515.41;4979686;28;20038;-72
2022/07/12 10:06:47;;;;;;;0.03;0.00;;;;;;;37.49;25.15;99503.19;4977222;28;20101;-72
2022/07/12 10:09:13;;;;;;;0.22;0.10;;;;;;;37.36;24.52;99516.59;4980943;28;20585;-72
2022/07/12 10:11:40;;;;;;;0.32;0.15;;;;;;;38.14;24.59;99523.28;4984271;28;20074;-72
2022/07/12 10:14:06;;;;;;;2.40;0.10;;;;;;;39.50;23.04;99516.53;4980409;28;20472;-72
2022/07/12 10:16:35;;;;;;;0.03;0.03;;;;;;;39.12;23.73;99520.34;4979466;28;20039;-73
2022/07/12 10:19:27;;;;;;;0.28;0.10;;;;;;;40.42;22.98;99521.06;4992624;28;20109;-73
2022/07/12 10:21:55;;;;;;;0.55;0.10;;;;;;;40.13;22.83;99517.84;4983580;28;20484;-73
2022/07/12 10:24:33;;;;;;;0.20;0.10;;;;;;;40.17;22.30;99521.56;4992552;28;20031;-73
2022/07/12 10:27:14;;;;;;;2.17;0.15;;;;;;;40.21;22.50;99516.78;4988714;28;20068;-72
2022/07/12 10:29:40;;;;;;;0.30;0.10;;;;;;;40.34;22.41;99510.84;4982273;28;20380;-73
2022/07/12 10:32:35;;;;;;;0.15;0.15;;;;;;;38.84;23.28;99507.31;4986026;28;20018;-71
2022/07/12 10:35:02;;;;;;;0.10;0.10;;;;;;;39.35;22.87;99509.03;4986174;28;20431;-73
2022/07/12 10:37:29;;;;;;;0.38;0.10;;;;;;;38.23;23.40;99511.78;4984400;28;20031;-72
2022/07/12 10:40:14;;;;;;;1.55;0.30;;;;;;;36.70;25.79;99500.38;4979479;28;20026;-72
2022/07/12 10:43:00;;;;;;;0.45;0.10;;;;;;;37.29;24.21;99499.50;4984490;28;20026;-71
2022/07/12 10:45:33;;;;;;;0.17;0.10;;;;;;;37.87;24.22;99491.19;4978596;28;20019;-73
2022/07/12 10:48:20;;;;;;;0.43;0.08;;;;;;;38.44;23.71;99487.97;4992775;28;20048;-73
2022/07/12 10:50:45;;;;;;;0.45;0.10;;;;;;;38.58;23.29;99486.22;4981613;28;20054;-73
2022/07/12 10:53:20;;;;;;;0.43;0.10;;;;;;;38.06;23.71;99487.59;4985823;28;20098;-71
2022/07/12 10:56:27;;;;;;;0.00;0.00;;;;;;;38.06;23.94;99479.13;4979604;28;20290;-73
2022/07/12 10:58:55;;;;;;;0.00;0.00;;;;;;;37.73;24.01;99473.94;4978412;28;20034;-73
2022/07/12 11:01:31;;;;;;;0.10;0.08;;;;;;;37.27;25.15;99485.75;4984290;28;20431;-74
2022/07/12 11:04:06;;;;;;;0.98;0.10;;;;;;;37.46;24.67;99487.81;4978905;28;20600;-73
2022/07/12 11:06:36;;;;;;;0.30;0.03;;;;;;;38.80;23.37;99469.63;4985259;28;20032;-73
2022/07/12 11:09:04;;;;;;;0.10;0.10;;;;;;;38.09;23.89;99486.84;4988224;28;20022;-73
2022/07/12 11:11:39;;;;;;;0.20;0.00;;;;;;;37.20;24.76;99485.59;4988170;28;20041;-73
2022/07/12 11:14:05;;;;;;;0.20;0.10;;;;;;;37.41;25.13;99485.28;4972877;28;20032;-73
2022/07/12 11:16:30;;;;;;;0.10;0.10;;;;;;;36.91;26.03;99488.84;4972658;28;20027;-73
2022/07/12 11:18:56;;;;;;;0.03;0.00;;;;;;;38.07;24.46;99479.94;4980114;28;20030;-73
2022/07/12 11:21:22;;;;;;;1.42;0.05;;;;;;;37.99;24.30;99490.28;4978585;28;20464;-73
2022/07/12 11:23:48;;;;;;;0.10;0.10;;;;;;;37.56;24.97;99482.84;4981089;28;20030;-73
2022/07/12 11:26:14;;;;;;;0.45;0.10;;;;;;;38.48;23.63;99486.84;4984478;28;20030;-73
2022/07/12 11:28:41;;;;;;;0.68;0.00;;;;;;;38.10;23.82;99491.31;4975073;28;20038;-73
2022/07/12 11:31:06;;;;;;;0.73;0.10;;;;;;;36.51;25.05;99478.50;4986933;28;20031;-72
2022/07/12 11:33:40;;;;;;;0.20;0.20;;;;;;;37.31;24.42;99485.03;4986455;28;20034;-74
2022/07/12 11:36:10;;;;;;;0.47;0.10;;;;;;;38.85;22.99;99477.81;4988397;28;20289;-73
2022/07/12 11:38:38;;;;;;;0.10;0.10;;;;;;;37.19;24.94;99485.97;4976909;28;20058;-74
2022/07/12 11:41:05;;;;;;;0.37;0.10;;;;;;;37.32;24.23;99483.84;4990282;28;20038;-73